sensor_id;sensor_type;location;lat;lon;timestamp;P1;durP1;ratioP1;P2;durP2;ratioP2
50757;SDS011;36732;47.980;11.652;2024-02-28T00:02:10;11.73;;;9.35;;
50757;SDS011;36732;47.980;11.652;2024-02-28T00:04:36;11.65;;;9.50;;
50757;SDS011;36732;47.980;11.652;2024-02-28T00:07:05;12.75;;;9.43;;
50757;SDS011;36732;47.980;11.652;2024-02-28T00:09:31;10.30;;;8.88;;
50757;SDS011;36732;47.980;11.652;2024-02-28T00:11:56;12.88;;;9.27;;
50757;SDS011;36732;47.980;11.652;2024-02-28T00:14:22;12.60;;;9.23;;
50757;SDS011;36732;47.980;11.652;2024-02-28T00:16:48;10.43;;;8.60;;
50757;SDS011;36732;47.980;11.652;2024-02-28T00:19:14;11.45;;;9.20;;
50757;SDS011;36732;47.980;11.652;2024-02-28T00:21:40;10.98;;;9.13;;
50757;SDS011;36732;47.980;11.652;2024-02-28T00:24:06;12.38;;;9.90;;
50757;SDS011;36732;47.980;11.652;2024-02-28T00:26:32;12.00;;;9.30;;
50757;SDS011;36732;47.980;11.652;2024-02-28T00:28:58;11.80;;;9.63;;
50757;SDS011;36732;47.980;11.652;2024-02-28T00:31:23;12.18;;;10.23;;
50757;SDS011;36732;47.980;11.652;2024-02-28T00:33:50;11.95;;;9.50;;
50757;SDS011;36732;47.980;11.652;2024-02-28T00:36:15;14.32;;;10.02;;
50757;SDS011;36732;47.980;11.652;2024-02-28T00:38:41;14.55;;;10.80;;
50757;SDS011;36732;47.980;11.652;2024-02-28T00:41:07;12.63;;;9.70;;
50757;SDS011;36732;47.980;11.652;2024-02-28T00:43:33;13.80;;;10.60;;
50757;SDS011;36732;47.980;11.652;2024-02-28T00:45:59;11.15;;;9.73;;
50757;SDS011;36732;47.980;11.652;2024-02-28T00:48:25;13.75;;;9.82;;
50757;SDS011;36732;47.980;11.652;2024-02-28T00:50:53;11.80;;;10.02;;
50757;SDS011;36732;47.980;11.652;2024-02-28T00:53:19;12.13;;;10.05;;
50757;SDS011;36732;47.980;11.652;2024-02-28T00:55:45;13.43;;;10.15;;
50757;SDS011;36732;47.980;11.652;2024-02-28T00:58:11;11.88;;;9.55;;
50757;SDS011;36732;47.980;11.652;2024-02-28T01:00:37;12.90;;;9.80;;
50757;SDS011;36732;47.980;11.652;2024-02-28T01:03:02;12.50;;;10.00;;
50757;SDS011;36732;47.980;11.652;2024-02-28T01:05:29;11.85;;;9.65;;
50757;SDS011;36732;47.980;11.652;2024-02-28T01:07:55;12.05;;;10.07;;
50757;SDS011;36732;47.980;11.652;2024-02-28T01:10:21;15.63;;;10.50;;
50757;SDS011;36732;47.980;11.652;2024-02-28T01:12:47;13.55;;;10.60;;
50757;SDS011;36732;47.980;11.652;2024-02-28T01:15:13;13.30;;;10.75;;
50757;SDS011;36732;47.980;11.652;2024-02-28T01:17:38;13.18;;;9.80;;
50757;SDS011;36732;47.980;11.652;2024-02-28T01:20:05;15.68;;;10.65;;
50757;SDS011;36732;47.980;11.652;2024-02-28T01:22:32;11.73;;;10.18;;
50757;SDS011;36732;47.980;11.652;2024-02-28T01:24:58;12.57;;;10.55;;
50757;SDS011;36732;47.980;11.652;2024-02-28T01:27:24;13.68;;;10.85;;
50757;SDS011;36732;47.980;11.652;2024-02-28T01:29:49;12.40;;;10.30;;
50757;SDS011;36732;47.980;11.652;2024-02-28T01:32:15;14.05;;;10.23;;
50757;SDS011;36732;47.980;11.652;2024-02-28T01:34:41;17.35;;;11.82;;
50757;SDS011;36732;47.980;11.652;2024-02-28T01:37:07;11.95;;;9.88;;
50757;SDS011;36732;47.980;11.652;2024-02-28T01:39:32;14.60;;;11.05;;
50757;SDS011;36732;47.980;11.652;2024-02-28T01:41:58;12.75;;;10.32;;
50757;SDS011;36732;47.980;11.652;2024-02-28T01:44:24;15.60;;;10.98;;
50757;SDS011;36732;47.980;11.652;2024-02-28T01:46:49;12.57;;;10.38;;
50757;SDS011;36732;47.980;11.652;2024-02-28T01:49:16;12.98;;;10.50;;
50757;SDS011;36732;47.980;11.652;2024-02-28T01:51:42;14.18;;;10.88;;
50757;SDS011;36732;47.980;11.652;2024-02-28T01:54:10;14.43;;;11.23;;
50757;SDS011;36732;47.980;11.652;2024-02-28T01:56:36;14.15;;;11.35;;
50757;SDS011;36732;47.980;11.652;2024-02-28T01:59:03;14.82;;;10.00;;
50757;SDS011;36732;47.980;11.652;2024-02-28T02:01:29;14.10;;;11.10;;
50757;SDS011;36732;47.980;11.652;2024-02-28T02:03:55;13.13;;;9.60;;
50757;SDS011;36732;47.980;11.652;2024-02-28T02:06:21;13.02;;;10.35;;
50757;SDS011;36732;47.980;11.652;2024-02-28T02:08:47;14.60;;;10.52;;
50757;SDS011;36732;47.980;11.652;2024-02-28T02:11:17;13.20;;;10.63;;
50757;SDS011;36732;47.980;11.652;2024-02-28T02:13:49;15.13;;;11.30;;
50757;SDS011;36732;47.980;11.652;2024-02-28T02:16:16;13.15;;;10.88;;
50757;SDS011;36732;47.980;11.652;2024-02-28T02:18:43;11.93;;;9.48;;
50757;SDS011;36732;47.980;11.652;2024-02-28T02:21:09;12.18;;;10.23;;
50757;SDS011;36732;47.980;11.652;2024-02-28T02:23:38;14.68;;;10.38;;
50757;SDS011;36732;47.980;11.652;2024-02-28T02:26:06;12.57;;;9.75;;
50757;SDS011;36732;47.980;11.652;2024-02-28T02:28:32;12.77;;;10.02;;
50757;SDS011;36732;47.980;11.652;2024-02-28T02:30:58;14.57;;;10.63;;
50757;SDS011;36732;47.980;11.652;2024-02-28T02:33:24;12.60;;;10.57;;
50757;SDS011;36732;47.980;11.652;2024-02-28T02:35:51;11.18;;;8.80;;
50757;SDS011;36732;47.980;11.652;2024-02-28T02:38:18;14.30;;;9.63;;
50757;SDS011;36732;47.980;11.652;2024-02-28T02:40:48;12.88;;;9.52;;
50757;SDS011;36732;47.980;11.652;2024-02-28T02:43:14;12.73;;;10.27;;
50757;SDS011;36732;47.980;11.652;2024-02-28T02:45:40;11.75;;;10.27;;
50757;SDS011;36732;47.980;11.652;2024-02-28T02:48:06;12.98;;;10.10;;
50757;SDS011;36732;47.980;11.652;2024-02-28T02:50:32;12.10;;;9.45;;
50757;SDS011;36732;47.980;11.652;2024-02-28T02:52:57;12.13;;;9.07;;
50757;SDS011;36732;47.980;11.652;2024-02-28T02:55:23;13.30;;;9.52;;
50757;SDS011;36732;47.980;11.652;2024-02-28T02:57:49;12.27;;;9.98;;
50757;SDS011;36732;47.980;11.652;2024-02-28T03:00:14;12.35;;;10.20;;
50757;SDS011;36732;47.980;11.652;2024-02-28T03:02:40;12.73;;;9.50;;
50757;SDS011;36732;47.980;11.652;2024-02-28T03:05:06;13.02;;;9.40;;
50757;SDS011;36732;47.980;11.652;2024-02-28T03:07:32;10.02;;;8.52;;
50757;SDS011;36732;47.980;11.652;2024-02-28T03:09:58;13.13;;;9.75;;
50757;SDS011;36732;47.980;11.652;2024-02-28T03:12:24;12.02;;;9.38;;
50757;SDS011;36732;47.980;11.652;2024-02-28T03:14:50;14.02;;;9.75;;
50757;SDS011;36732;47.980;11.652;2024-02-28T03:17:15;12.13;;;9.77;;
50757;SDS011;36732;47.980;11.652;2024-02-28T03:19:41;17.02;;;11.43;;
50757;SDS011;36732;47.980;11.652;2024-02-28T03:22:07;12.13;;;9.52;;
50757;SDS011;36732;47.980;11.652;2024-02-28T03:24:33;11.27;;;9.35;;
50757;SDS011;36732;47.980;11.652;2024-02-28T03:27:02;11.68;;;9.60;;
50757;SDS011;36732;47.980;11.652;2024-02-28T03:29:28;14.10;;;11.13;;
50757;SDS011;36732;47.980;11.652;2024-02-28T03:31:54;15.48;;;10.80;;
50757;SDS011;36732;47.980;11.652;2024-02-28T03:34:20;14.93;;;10.88;;
50757;SDS011;36732;47.980;11.652;2024-02-28T03:36:45;12.75;;;10.43;;
50757;SDS011;36732;47.980;11.652;2024-02-28T03:39:11;12.73;;;10.15;;
50757;SDS011;36732;47.980;11.652;2024-02-28T03:41:37;12.27;;;10.07;;
50757;SDS011;36732;47.980;11.652;2024-02-28T03:44:03;14.75;;;11.23;;
50757;SDS011;36732;47.980;11.652;2024-02-28T03:46:29;12.88;;;10.32;;
50757;SDS011;36732;47.980;11.652;2024-02-28T03:48:55;13.68;;;11.50;;
50757;SDS011;36732;47.980;11.652;2024-02-28T03:51:21;15.13;;;11.30;;
50757;SDS011;36732;47.980;11.652;2024-02-28T03:53:47;14.75;;;12.30;;
50757;SDS011;36732;47.980;11.652;2024-02-28T03:56:12;13.52;;;11.48;;
50757;SDS011;36732;47.980;11.652;2024-02-28T03:58:39;15.68;;;10.82;;
50757;SDS011;36732;47.980;11.652;2024-02-28T04:01:05;13.82;;;10.82;;
50757;SDS011;36732;47.980;11.652;2024-02-28T04:03:31;13.48;;;11.20;;
50757;SDS011;36732;47.980;11.652;2024-02-28T04:05:57;13.55;;;10.75;;
50757;SDS011;36732;47.980;11.652;2024-02-28T04:08:23;13.82;;;11.25;;
50757;SDS011;36732;47.980;11.652;2024-02-28T04:10:49;15.00;;;11.52;;
50757;SDS011;36732;47.980;11.652;2024-02-28T04:13:17;17.40;;;11.80;;
50757;SDS011;36732;47.980;11.652;2024-02-28T04:15:43;14.70;;;11.32;;
50757;SDS011;36732;47.980;11.652;2024-02-28T04:18:10;14.52;;;10.30;;
50757;SDS011;36732;47.980;11.652;2024-02-28T04:20:36;14.80;;;11.52;;
50757;SDS011;36732;47.980;11.652;2024-02-28T04:23:03;15.15;;;12.23;;
50757;SDS011;36732;47.980;11.652;2024-02-28T04:25:29;14.40;;;11.48;;
50757;SDS011;36732;47.980;11.652;2024-02-28T04:27:55;17.45;;;11.93;;
50757;SDS011;36732;47.980;11.652;2024-02-28T04:30:22;16.20;;;11.82;;
50757;SDS011;36732;47.980;11.652;2024-02-28T04:32:47;16.45;;;11.63;;
50757;SDS011;36732;47.980;11.652;2024-02-28T04:35:13;13.23;;;10.60;;
50757;SDS011;36732;47.980;11.652;2024-02-28T04:37:43;15.43;;;11.55;;
50757;SDS011;36732;47.980;11.652;2024-02-28T04:40:12;14.80;;;12.57;;
50757;SDS011;36732;47.980;11.652;2024-02-28T04:42:38;17.13;;;13.30;;
50757;SDS011;36732;47.980;11.652;2024-02-28T04:45:05;20.45;;;13.48;;
50757;SDS011;36732;47.980;11.652;2024-02-28T04:47:31;16.88;;;13.52;;
50757;SDS011;36732;47.980;11.652;2024-02-28T04:49:57;16.23;;;12.23;;
50757;SDS011;36732;47.980;11.652;2024-02-28T04:52:23;17.63;;;13.88;;
50757;SDS011;36732;47.980;11.652;2024-02-28T04:54:49;17.52;;;13.27;;
50757;SDS011;36732;47.980;11.652;2024-02-28T04:57:16;19.05;;;13.80;;
50757;SDS011;36732;47.980;11.652;2024-02-28T04:59:43;17.38;;;13.23;;
50757;SDS011;36732;47.980;11.652;2024-02-28T05:02:09;18.80;;;13.65;;
50757;SDS011;36732;47.980;11.652;2024-02-28T05:04:35;19.55;;;14.35;;
50757;SDS011;36732;47.980;11.652;2024-02-28T05:07:00;19.80;;;14.45;;
50757;SDS011;36732;47.980;11.652;2024-02-28T05:09:26;20.77;;;15.02;;
50757;SDS011;36732;47.980;11.652;2024-02-28T05:11:52;25.65;;;15.48;;
50757;SDS011;36732;47.980;11.652;2024-02-28T05:14:18;19.33;;;14.43;;
50757;SDS011;36732;47.980;11.652;2024-02-28T05:16:43;21.17;;;14.70;;
50757;SDS011;36732;47.980;11.652;2024-02-28T05:19:09;23.17;;;16.05;;
50757;SDS011;36732;47.980;11.652;2024-02-28T05:21:44;23.52;;;16.58;;
50757;SDS011;36732;47.980;11.652;2024-02-28T05:24:10;23.67;;;16.25;;
50757;SDS011;36732;47.980;11.652;2024-02-28T05:26:36;21.30;;;15.57;;
50757;SDS011;36732;47.980;11.652;2024-02-28T05:29:03;20.33;;;15.73;;
50757;SDS011;36732;47.980;11.652;2024-02-28T05:31:30;20.75;;;15.35;;
50757;SDS011;36732;47.980;11.652;2024-02-28T05:33:57;21.73;;;15.35;;
50757;SDS011;36732;47.980;11.652;2024-02-28T05:36:25;21.92;;;14.90;;
50757;SDS011;36732;47.980;11.652;2024-02-28T05:38:53;21.45;;;15.13;;
50757;SDS011;36732;47.980;11.652;2024-02-28T05:41:21;20.90;;;14.50;;
50757;SDS011;36732;47.980;11.652;2024-02-28T05:43:47;18.42;;;13.90;;
50757;SDS011;36732;47.980;11.652;2024-02-28T05:46:14;20.15;;;14.98;;
50757;SDS011;36732;47.980;11.652;2024-02-28T05:48:41;21.95;;;14.93;;
50757;SDS011;36732;47.980;11.652;2024-02-28T05:51:08;20.65;;;14.63;;
50757;SDS011;36732;47.980;11.652;2024-02-28T05:53:40;25.80;;;16.98;;
50757;SDS011;36732;47.980;11.652;2024-02-28T05:56:07;26.70;;;17.50;;
50757;SDS011;36732;47.980;11.652;2024-02-28T05:58:42;26.48;;;18.13;;
50757;SDS011;36732;47.980;11.652;2024-02-28T06:01:09;27.48;;;17.63;;
50757;SDS011;36732;47.980;11.652;2024-02-28T06:03:37;28.23;;;18.30;;
50757;SDS011;36732;47.980;11.652;2024-02-28T06:06:03;26.63;;;16.77;;
50757;SDS011;36732;47.980;11.652;2024-02-28T06:08:32;26.90;;;17.83;;
50757;SDS011;36732;47.980;11.652;2024-02-28T06:10:59;24.30;;;17.15;;
50757;SDS011;36732;47.980;11.652;2024-02-28T06:13:25;30.30;;;19.02;;
50757;SDS011;36732;47.980;11.652;2024-02-28T06:15:52;29.13;;;20.00;;
50757;SDS011;36732;47.980;11.652;2024-02-28T06:18:18;29.00;;;19.23;;
50757;SDS011;36732;47.980;11.652;2024-02-28T06:20:43;28.25;;;19.10;;
50757;SDS011;36732;47.980;11.652;2024-02-28T06:23:09;33.60;;;20.60;;
50757;SDS011;36732;47.980;11.652;2024-02-28T06:25:35;27.52;;;19.65;;
50757;SDS011;36732;47.980;11.652;2024-02-28T06:28:00;26.95;;;19.00;;
50757;SDS011;36732;47.980;11.652;2024-02-28T06:30:28;27.33;;;18.60;;
50757;SDS011;36732;47.980;11.652;2024-02-28T06:32:53;27.60;;;17.60;;
50757;SDS011;36732;47.980;11.652;2024-02-28T06:35:19;28.70;;;18.80;;
50757;SDS011;36732;47.980;11.652;2024-02-28T06:37:45;27.75;;;18.42;;
50757;SDS011;36732;47.980;11.652;2024-02-28T06:40:15;26.65;;;18.48;;
50757;SDS011;36732;47.980;11.652;2024-02-28T06:42:41;27.23;;;19.10;;
50757;SDS011;36732;47.980;11.652;2024-02-28T06:45:07;27.90;;;18.73;;
50757;SDS011;36732;47.980;11.652;2024-02-28T06:47:33;26.08;;;18.50;;
50757;SDS011;36732;47.980;11.652;2024-02-28T06:49:59;26.33;;;19.25;;
50757;SDS011;36732;47.980;11.652;2024-02-28T06:52:25;26.90;;;18.40;;
50757;SDS011;36732;47.980;11.652;2024-02-28T06:54:51;28.15;;;18.95;;
50757;SDS011;36732;47.980;11.652;2024-02-28T06:57:16;28.55;;;19.08;;
50757;SDS011;36732;47.980;11.652;2024-02-28T06:59:42;26.67;;;17.48;;
50757;SDS011;36732;47.980;11.652;2024-02-28T07:02:08;30.90;;;18.65;;
50757;SDS011;36732;47.980;11.652;2024-02-28T07:04:34;30.13;;;18.15;;
50757;SDS011;36732;47.980;11.652;2024-02-28T07:07:00;24.85;;;18.20;;
50757;SDS011;36732;47.980;11.652;2024-02-28T07:09:25;26.95;;;17.88;;
50757;SDS011;36732;47.980;11.652;2024-02-28T07:11:54;26.75;;;18.77;;
50757;SDS011;36732;47.980;11.652;2024-02-28T07:14:20;25.95;;;17.67;;
50757;SDS011;36732;47.980;11.652;2024-02-28T07:16:46;27.98;;;18.38;;
50757;SDS011;36732;47.980;11.652;2024-02-28T07:19:11;28.77;;;19.13;;
50757;SDS011;36732;47.980;11.652;2024-02-28T07:21:37;25.20;;;18.55;;
50757;SDS011;36732;47.980;11.652;2024-02-28T07:24:03;24.50;;;17.10;;
50757;SDS011;36732;47.980;11.652;2024-02-28T07:26:30;26.35;;;18.17;;
50757;SDS011;36732;47.980;11.652;2024-02-28T07:28:57;25.25;;;18.20;;
50757;SDS011;36732;47.980;11.652;2024-02-28T07:31:22;25.77;;;18.05;;
50757;SDS011;36732;47.980;11.652;2024-02-28T07:33:48;26.33;;;18.65;;
50757;SDS011;36732;47.980;11.652;2024-02-28T07:36:14;26.58;;;18.42;;
50757;SDS011;36732;47.980;11.652;2024-02-28T07:38:42;26.65;;;18.75;;
50757;SDS011;36732;47.980;11.652;2024-02-28T07:41:08;24.55;;;18.40;;
50757;SDS011;36732;47.980;11.652;2024-02-28T07:43:34;24.50;;;18.42;;
50757;SDS011;36732;47.980;11.652;2024-02-28T07:46:11;29.45;;;19.20;;
50757;SDS011;36732;47.980;11.652;2024-02-28T07:48:37;26.77;;;19.08;;
50757;SDS011;36732;47.980;11.652;2024-02-28T07:51:04;25.67;;;17.88;;
50757;SDS011;36732;47.980;11.652;2024-02-28T07:53:31;24.55;;;18.25;;
50757;SDS011;36732;47.980;11.652;2024-02-28T07:55:57;28.65;;;19.52;;
50757;SDS011;36732;47.980;11.652;2024-02-28T07:58:22;24.40;;;18.13;;
50757;SDS011;36732;47.980;11.652;2024-02-28T08:00:48;25.60;;;18.70;;
50757;SDS011;36732;47.980;11.652;2024-02-28T08:03:15;26.67;;;19.42;;
50757;SDS011;36732;47.980;11.652;2024-02-28T08:05:41;23.30;;;16.80;;
50757;SDS011;36732;47.980;11.652;2024-02-28T08:08:08;28.35;;;20.48;;
50757;SDS011;36732;47.980;11.652;2024-02-28T08:10:34;32.35;;;20.60;;
50757;SDS011;36732;47.980;11.652;2024-02-28T08:13:01;31.20;;;19.90;;
50757;SDS011;36732;47.980;11.652;2024-02-28T08:15:27;33.30;;;22.58;;
50757;SDS011;36732;47.980;11.652;2024-02-28T08:17:52;31.67;;;21.48;;
50757;SDS011;36732;47.980;11.652;2024-02-28T08:20:19;30.40;;;22.45;;
50757;SDS011;36732;47.980;11.652;2024-02-28T08:22:45;31.25;;;19.95;;
50757;SDS011;36732;47.980;11.652;2024-02-28T08:25:11;27.60;;;20.90;;
50757;SDS011;36732;47.980;11.652;2024-02-28T08:27:37;29.73;;;20.13;;
50757;SDS011;36732;47.980;11.652;2024-02-28T08:30:03;29.52;;;21.55;;
50757;SDS011;36732;47.980;11.652;2024-02-28T08:32:33;33.50;;;22.92;;
50757;SDS011;36732;47.980;11.652;2024-02-28T08:34:59;29.85;;;21.75;;
50757;SDS011;36732;47.980;11.652;2024-02-28T08:37:25;33.67;;;21.95;;
50757;SDS011;36732;47.980;11.652;2024-02-28T08:39:53;30.98;;;22.17;;
50757;SDS011;36732;47.980;11.652;2024-02-28T08:42:22;32.97;;;22.75;;
50757;SDS011;36732;47.980;11.652;2024-02-28T08:44:52;32.33;;;23.88;;
50757;SDS011;36732;47.980;11.652;2024-02-28T08:47:22;35.58;;;22.15;;
50757;SDS011;36732;47.980;11.652;2024-02-28T08:49:49;32.58;;;22.90;;
50757;SDS011;36732;47.980;11.652;2024-02-28T08:52:14;36.95;;;23.42;;
50757;SDS011;36732;47.980;11.652;2024-02-28T08:54:40;30.40;;;22.15;;
50757;SDS011;36732;47.980;11.652;2024-02-28T08:57:06;33.05;;;22.50;;
50757;SDS011;36732;47.980;11.652;2024-02-28T08:59:32;32.35;;;22.23;;
50757;SDS011;36732;47.980;11.652;2024-02-28T09:01:58;32.08;;;23.20;;
50757;SDS011;36732;47.980;11.652;2024-02-28T09:04:23;36.20;;;22.73;;
50757;SDS011;36732;47.980;11.652;2024-02-28T09:06:49;33.20;;;23.25;;
50757;SDS011;36732;47.980;11.652;2024-02-28T09:09:15;36.00;;;24.83;;
50757;SDS011;36732;47.980;11.652;2024-02-28T09:11:41;33.53;;;23.20;;
50757;SDS011;36732;47.980;11.652;2024-02-28T09:14:07;31.83;;;22.98;;
50757;SDS011;36732;47.980;11.652;2024-02-28T09:16:33;32.70;;;22.60;;
50757;SDS011;36732;47.980;11.652;2024-02-28T09:18:58;30.73;;;22.77;;
50757;SDS011;36732;47.980;11.652;2024-02-28T09:21:24;32.60;;;22.85;;
50757;SDS011;36732;47.980;11.652;2024-02-28T09:23:50;32.03;;;22.77;;
50757;SDS011;36732;47.980;11.652;2024-02-28T09:26:15;36.33;;;23.13;;
50757;SDS011;36732;47.980;11.652;2024-02-28T09:28:41;31.73;;;22.33;;
50757;SDS011;36732;47.980;11.652;2024-02-28T09:31:07;33.00;;;23.65;;
50757;SDS011;36732;47.980;11.652;2024-02-28T09:33:33;34.28;;;23.33;;
50757;SDS011;36732;47.980;11.652;2024-02-28T09:36:01;31.20;;;22.42;;
50757;SDS011;36732;47.980;11.652;2024-02-28T09:38:28;31.00;;;22.33;;
50757;SDS011;36732;47.980;11.652;2024-02-28T09:40:54;32.70;;;22.08;;
50757;SDS011;36732;47.980;11.652;2024-02-28T09:43:30;29.95;;;22.00;;
50757;SDS011;36732;47.980;11.652;2024-02-28T09:46:00;32.60;;;21.08;;
50757;SDS011;36732;47.980;11.652;2024-02-28T09:48:29;30.38;;;21.85;;
50757;SDS011;36732;47.980;11.652;2024-02-28T09:50:56;29.58;;;21.63;;
50757;SDS011;36732;47.980;11.652;2024-02-28T09:53:22;30.98;;;21.58;;
50757;SDS011;36732;47.980;11.652;2024-02-28T09:55:49;31.83;;;21.30;;
50757;SDS011;36732;47.980;11.652;2024-02-28T09:58:17;31.35;;;22.38;;
50757;SDS011;36732;47.980;11.652;2024-02-28T10:00:43;30.92;;;21.05;;
50757;SDS011;36732;47.980;11.652;2024-02-28T10:03:13;32.78;;;21.52;;
50757;SDS011;36732;47.980;11.652;2024-02-28T10:05:44;32.35;;;22.63;;
50757;SDS011;36732;47.980;11.652;2024-02-28T10:08:11;29.92;;;20.80;;
50757;SDS011;36732;47.980;11.652;2024-02-28T10:10:38;31.38;;;20.88;;
50757;SDS011;36732;47.980;11.652;2024-02-28T10:13:09;32.78;;;22.38;;
50757;SDS011;36732;47.980;11.652;2024-02-28T10:15:35;29.88;;;20.27;;
50757;SDS011;36732;47.980;11.652;2024-02-28T10:18:01;30.15;;;21.65;;
50757;SDS011;36732;47.980;11.652;2024-02-28T10:20:26;31.60;;;20.45;;
50757;SDS011;36732;47.980;11.652;2024-02-28T10:22:52;31.63;;;22.13;;
50757;SDS011;36732;47.980;11.652;2024-02-28T10:25:18;34.28;;;20.75;;
50757;SDS011;36732;47.980;11.652;2024-02-28T10:27:44;31.05;;;20.30;;
50757;SDS011;36732;47.980;11.652;2024-02-28T10:30:12;30.63;;;21.17;;
50757;SDS011;36732;47.980;11.652;2024-02-28T10:32:47;27.40;;;19.17;;
50757;SDS011;36732;47.980;11.652;2024-02-28T10:35:14;29.90;;;19.55;;
50757;SDS011;36732;47.980;11.652;2024-02-28T10:37:44;29.23;;;20.80;;
50757;SDS011;36732;47.980;11.652;2024-02-28T10:40:12;29.85;;;19.90;;
50757;SDS011;36732;47.980;11.652;2024-02-28T10:42:39;30.60;;;20.92;;
50757;SDS011;36732;47.980;11.652;2024-02-28T10:45:08;29.30;;;20.23;;
50757;SDS011;36732;47.980;11.652;2024-02-28T10:47:40;29.58;;;20.00;;
50757;SDS011;36732;47.980;11.652;2024-02-28T10:50:06;27.65;;;19.80;;
50757;SDS011;36732;47.980;11.652;2024-02-28T10:52:33;28.95;;;21.20;;
50757;SDS011;36732;47.980;11.652;2024-02-28T10:55:00;29.83;;;21.15;;
50757;SDS011;36732;47.980;11.652;2024-02-28T10:57:29;32.30;;;22.45;;
50757;SDS011;36732;47.980;11.652;2024-02-28T10:59:57;29.15;;;19.45;;
50757;SDS011;36732;47.980;11.652;2024-02-28T11:02:25;28.55;;;20.02;;
50757;SDS011;36732;47.980;11.652;2024-02-28T11:04:52;30.45;;;20.42;;
50757;SDS011;36732;47.980;11.652;2024-02-28T11:07:21;28.52;;;19.73;;
50757;SDS011;36732;47.980;11.652;2024-02-28T11:09:47;34.30;;;22.85;;
50757;SDS011;36732;47.980;11.652;2024-02-28T11:12:23;33.00;;;21.63;;
50757;SDS011;36732;47.980;11.652;2024-02-28T11:14:58;31.05;;;20.67;;
50757;SDS011;36732;47.980;11.652;2024-02-28T11:17:31;27.25;;;20.00;;
50757;SDS011;36732;47.980;11.652;2024-02-28T11:19:58;28.90;;;21.35;;
50757;SDS011;36732;47.980;11.652;2024-02-28T11:22:27;31.83;;;21.50;;
50757;SDS011;36732;47.980;11.652;2024-02-28T11:24:54;32.47;;;21.25;;
50757;SDS011;36732;47.980;11.652;2024-02-28T11:27:21;31.20;;;20.52;;
50757;SDS011;36732;47.980;11.652;2024-02-28T11:29:47;29.15;;;20.60;;
50757;SDS011;36732;47.980;11.652;2024-02-28T11:32:14;30.08;;;20.20;;
50757;SDS011;36732;47.980;11.652;2024-02-28T11:34:41;27.73;;;19.45;;
50757;SDS011;36732;47.980;11.652;2024-02-28T11:37:08;27.67;;;19.85;;
50757;SDS011;36732;47.980;11.652;2024-02-28T11:39:34;33.08;;;21.35;;
50757;SDS011;36732;47.980;11.652;2024-02-28T11:42:17;29.25;;;19.88;;
50757;SDS011;36732;47.980;11.652;2024-02-28T11:44:43;29.92;;;20.20;;
50757;SDS011;36732;47.980;11.652;2024-02-28T11:47:18;28.17;;;19.35;;
50757;SDS011;36732;47.980;11.652;2024-02-28T11:49:44;29.63;;;20.92;;
50757;SDS011;36732;47.980;11.652;2024-02-28T11:52:10;26.27;;;19.33;;
50757;SDS011;36732;47.980;11.652;2024-02-28T11:54:36;27.00;;;19.20;;
50757;SDS011;36732;47.980;11.652;2024-02-28T11:57:02;30.08;;;20.60;;
50757;SDS011;36732;47.980;11.652;2024-02-28T11:59:29;26.85;;;18.98;;
50757;SDS011;36732;47.980;11.652;2024-02-28T12:01:54;28.15;;;19.02;;
50757;SDS011;36732;47.980;11.652;2024-02-28T12:04:20;28.63;;;20.02;;
50757;SDS011;36732;47.980;11.652;2024-02-28T12:06:49;27.02;;;18.88;;
50757;SDS011;36732;47.980;11.652;2024-02-28T12:09:14;27.75;;;19.42;;
50757;SDS011;36732;47.980;11.652;2024-02-28T12:11:40;29.55;;;20.25;;
50757;SDS011;36732;47.980;11.652;2024-02-28T12:14:06;30.00;;;21.33;;
50757;SDS011;36732;47.980;11.652;2024-02-28T12:16:36;35.28;;;19.70;;
50757;SDS011;36732;47.980;11.652;2024-02-28T12:19:03;27.98;;;19.45;;
50757;SDS011;36732;47.980;11.652;2024-02-28T12:24:03;29.55;;;20.83;;
50757;SDS011;36732;47.980;11.652;2024-02-28T12:26:32;27.60;;;19.75;;
50757;SDS011;36732;47.980;11.652;2024-02-28T12:28:58;28.80;;;20.30;;
50757;SDS011;36732;47.980;11.652;2024-02-28T12:31:23;32.25;;;21.00;;
50757;SDS011;36732;47.980;11.652;2024-02-28T12:33:49;29.23;;;20.83;;
50757;SDS011;36732;47.980;11.652;2024-02-28T12:36:15;33.35;;;22.63;;
50757;SDS011;36732;47.980;11.652;2024-02-28T12:38:40;31.20;;;21.40;;
50757;SDS011;36732;47.980;11.652;2024-02-28T12:41:06;32.65;;;22.65;;
50757;SDS011;36732;47.980;11.652;2024-02-28T12:43:33;33.28;;;21.88;;
50757;SDS011;36732;47.980;11.652;2024-02-28T12:45:59;33.90;;;21.35;;
50757;SDS011;36732;47.980;11.652;2024-02-28T12:48:25;31.58;;;21.83;;
50757;SDS011;36732;47.980;11.652;2024-02-28T12:50:50;33.85;;;23.75;;
50757;SDS011;36732;47.980;11.652;2024-02-28T12:53:16;33.83;;;22.85;;
50757;SDS011;36732;47.980;11.652;2024-02-28T12:55:42;37.13;;;24.80;;
50757;SDS011;36732;47.980;11.652;2024-02-28T12:58:09;30.15;;;22.33;;
50757;SDS011;36732;47.980;11.652;2024-02-28T13:00:35;34.83;;;21.15;;
50757;SDS011;36732;47.980;11.652;2024-02-28T13:03:01;39.20;;;25.45;;
50757;SDS011;36732;47.980;11.652;2024-02-28T13:05:28;35.70;;;23.25;;
50757;SDS011;36732;47.980;11.652;2024-02-28T13:07:54;33.35;;;23.30;;
50757;SDS011;36732;47.980;11.652;2024-02-28T13:10:20;32.42;;;21.67;;
50757;SDS011;36732;47.980;11.652;2024-02-28T13:12:47;30.77;;;20.90;;
50757;SDS011;36732;47.980;11.652;2024-02-28T13:15:13;27.65;;;20.35;;
50757;SDS011;36732;47.980;11.652;2024-02-28T13:17:38;34.80;;;22.55;;
50757;SDS011;36732;47.980;11.652;2024-02-28T13:20:06;30.88;;;21.60;;
50757;SDS011;36732;47.980;11.652;2024-02-28T13:22:32;33.97;;;20.88;;
50757;SDS011;36732;47.980;11.652;2024-02-28T13:24:58;30.55;;;20.48;;
50757;SDS011;36732;47.980;11.652;2024-02-28T13:27:25;30.17;;;21.02;;
50757;SDS011;36732;47.980;11.652;2024-02-28T13:29:51;29.73;;;21.33;;
50757;SDS011;36732;47.980;11.652;2024-02-28T13:32:17;32.08;;;22.55;;
50757;SDS011;36732;47.980;11.652;2024-02-28T13:34:42;31.70;;;21.42;;
50757;SDS011;36732;47.980;11.652;2024-02-28T13:37:08;31.20;;;21.42;;
50757;SDS011;36732;47.980;11.652;2024-02-28T13:39:34;33.22;;;21.85;;
50757;SDS011;36732;47.980;11.652;2024-02-28T13:42:00;31.05;;;22.33;;
50757;SDS011;36732;47.980;11.652;2024-02-28T13:44:25;31.75;;;22.52;;
50757;SDS011;36732;47.980;11.652;2024-02-28T13:46:52;29.02;;;21.05;;
50757;SDS011;36732;47.980;11.652;2024-02-28T13:49:18;29.98;;;21.95;;
50757;SDS011;36732;47.980;11.652;2024-02-28T13:51:45;30.35;;;21.75;;
50757;SDS011;36732;47.980;11.652;2024-02-28T13:54:11;30.45;;;21.83;;
50757;SDS011;36732;47.980;11.652;2024-02-28T13:56:37;31.17;;;22.63;;
50757;SDS011;36732;47.980;11.652;2024-02-28T13:59:03;32.35;;;22.77;;
50757;SDS011;36732;47.980;11.652;2024-02-28T14:01:28;29.65;;;20.83;;
50757;SDS011;36732;47.980;11.652;2024-02-28T14:03:54;32.38;;;20.85;;
50757;SDS011;36732;47.980;11.652;2024-02-28T14:06:20;37.28;;;24.33;;
50757;SDS011;36732;47.980;11.652;2024-02-28T14:08:45;32.80;;;24.42;;
50757;SDS011;36732;47.980;11.652;2024-02-28T14:11:11;34.95;;;21.50;;